Time;durP1;ratioP1;P1;durP2;ratioP2;P2;SDS_P1;SDS_P2;PMS_P1;PMS_P2;Temp;Humidity;BMP_temperature;BMP_pressure;BME280_temperature;BME280_humidity;BME280_pressure;Samples;Min_cycle;Max_cycle;Signal;HPM_P1;HPM_P2
2022/01/07 00:00:15;;;;;;;68.57;25.27;;;0.80;96.50;;;;;;4956488;28;20340;-88
2022/01/07 00:02:42;;;;;;;73.60;25.52;;;0.80;96.60;;;;;;4950828;29;20027;-88
2022/01/07 00:05:08;;;;;;;68.97;25.15;;;0.70;96.50;;;;;;4951236;29;20031;-88
2022/01/07 00:07:33;;;;;;;77.25;25.67;;;0.80;96.60;;;;;;4950192;28;20028;-88
2022/01/07 00:09:59;;;;;;;58.58;25.08;;;0.80;96.60;;;;;;4949131;28;20040;-87
2022/01/07 00:12:24;;;;;;;64.57;25.40;;;0.80;96.60;;;;;;4946307;29;20023;-87
2022/01/07 00:14:50;;;;;;;72.47;25.50;;;0.80;96.60;;;;;;4958099;28;20494;-88
2022/01/07 00:17:21;;;;;;;66.75;25.55;;;0.80;96.50;;;;;;4946366;29;20548;-88
2022/01/07 00:19:53;;;;;;;60.72;25.05;;;0.80;96.60;;;;;;4945525;29;20043;-87
2022/01/07 00:22:19;;;;;;;47.42;20.48;;;0.80;96.50;;;;;;4964872;28;20407;-88
2022/01/07 00:24:45;;;;;;;71.30;25.13;;;0.80;96.40;;;;;;4947723;28;20031;-88
2022/01/07 00:27:10;;;;;;;68.05;25.13;;;0.80;96.40;;;;;;4943107;28;20068;-87
2022/01/07 00:29:38;;;;;;;66.75;23.48;;;0.80;96.40;;;;;;4952789;28;20045;-87
2022/01/07 00:32:04;;;;;;;55.25;20.02;;;0.80;96.40;;;;;;4951009;29;20036;-88
2022/01/07 00:34:32;;;;;;;59.72;23.65;;;0.80;96.30;;;;;;4953012;29;20031;-88
2022/01/07 00:37:00;;;;;;;60.92;24.20;;;0.80;96.30;;;;;;4947453;28;20074;-87
2022/01/07 00:39:28;;;;;;;66.65;25.08;;;0.80;96.30;;;;;;4962690;28;20027;-87
2022/01/07 00:41:54;;;;;;;65.53;23.98;;;0.80;96.30;;;;;;4934211;29;20063;-88
2022/01/07 00:44:20;;;;;;;63.80;23.70;;;0.80;96.30;;;;;;4946952;28;20391;-88
2022/01/07 00:46:47;;;;;;;60.38;22.67;;;0.80;96.30;;;;;;4948629;28;20058;-88
2022/01/07 00:49:20;;;;;;;59.03;22.65;;;0.90;96.20;;;;;;4963996;28;20023;-88
2022/01/07 00:51:46;;;;;;;57.28;22.85;;;0.90;96.10;;;;;;4950639;28;20023;-88
2022/01/07 00:54:17;;;;;;;60.55;23.48;;;0.90;96.00;;;;;;4955406;28;20039;-88
2022/01/07 00:56:43;;;;;;;57.40;21.92;;;0.80;95.90;;;;;;4946258;28;20035;-87
2022/01/07 00:59:09;;;;;;;53.13;20.73;;;0.80;95.90;;;;;;4955047;28;20492;-87
2022/01/07 01:01:37;;;;;;;62.92;21.95;;;0.90;96.00;;;;;;4942829;28;20023;-87
2022/01/07 01:04:03;;;;;;;63.85;22.92;;;0.90;95.80;;;;;;4947353;29;20509;-87
2022/01/07 01:06:29;;;;;;;49.17;19.83;;;0.90;95.70;;;;;;4962716;28;20496;-88
2022/01/07 01:08:54;;;;;;;49.33;20.55;;;0.90;95.60;;;;;;4948973;28;20058;-88
2022/01/07 01:11:20;;;;;;;46.15;19.70;;;1.00;95.60;;;;;;4947199;29;20152;-88
2022/01/07 01:13:46;;;;;;;53.67;20.40;;;0.90;95.50;;;;;;4943852;29;20051;-87
2022/01/07 01:16:11;;;;;;;48.58;19.00;;;0.80;95.50;;;;;;4937199;28;20045;-88
2022/01/07 01:18:57;;;;;;;52.33;18.60;;;0.90;95.60;;;;;;4951006;29;20027;-88
2022/01/07 01:21:27;;;;;;;53.45;19.20;;;0.90;95.70;;;;;;4941058;28;20109;-88
2022/01/07 01:23:52;;;;;;;50.08;19.55;;;0.90;95.50;;;;;;4949327;28;20037;-88
2022/01/07 01:26:18;;;;;;;45.40;18.35;;;0.90;95.50;;;;;;4949846;28;20392;-87
2022/01/07 01:28:45;;;;;;;36.42;19.13;;;0.90;95.50;;;;;;4954950;28;20032;-88
2022/01/07 01:31:14;;;;;;;47.50;18.85;;;0.90;95.30;;;;;;4936458;29;20031;-88
2022/01/07 01:33:39;;;;;;;43.28;17.90;;;0.90;95.30;;;;;;4944214;29;20127;-87
2022/01/07 01:36:09;;;;;;;46.08;17.52;;;0.90;95.30;;;;;;4939933;28;20104;-88
2022/01/07 01:38:35;;;;;;;35.30;16.75;;;0.90;95.20;;;;;;4947718;28;20143;-88
2022/01/07 01:41:02;;;;;;;39.63;17.42;;;1.00;95.20;;;;;;4949899;29;20495;-87
2022/01/07 01:43:27;;;;;;;38.83;17.73;;;0.90;95.10;;;;;;4959630;28;20039;-88
2022/01/07 01:45:53;;;;;;;34.70;15.63;;;0.90;95.20;;;;;;4937944;28;20027;-88
2022/01/07 01:48:20;;;;;;;33.22;16.92;;;0.90;95.10;;;;;;4945578;28;20085;-88
2022/01/07 01:50:47;;;;;;;29.60;13.48;;;1.00;95.10;;;;;;4961431;28;20028;-88
2022/01/07 01:53:13;;;;;;;39.25;16.13;;;1.00;95.00;;;;;;4962342;28;20027;-88
2022/01/07 01:55:46;;;;;;;34.30;14.80;;;0.90;94.90;;;;;;4948640;28;20455;-88
2022/01/07 01:58:13;;;;;;;41.95;15.18;;;1.00;94.80;;;;;;4958441;28;20043;-88
2022/01/07 02:00:43;;;;;;;28.98;13.32;;;1.00;94.70;;;;;;4947620;28;20042;-88
2022/01/07 02:03:11;;;;;;;36.05;14.98;;;1.00;94.70;;;;;;4947449;28;20404;-88
2022/01/07 02:05:37;;;;;;;36.10;13.35;;;1.00;94.70;;;;;;4955124;28;20114;-88
2022/01/07 02:08:03;;;;;;;29.70;14.45;;;1.00;94.60;;;;;;4957053;28;20046;-88
2022/01/07 02:10:31;;;;;;;33.58;13.48;;;1.00;94.40;;;;;;4941290;28;20055;-88
2022/01/07 02:12:59;;;;;;;34.03;13.95;;;1.10;94.40;;;;;;4966479;28;20032;-88
2022/01/07 02:15:24;;;;;;;33.25;13.65;;;1.10;94.20;;;;;;4950210;29;20035;-88
2022/01/07 02:17:53;;;;;;;36.70;12.88;;;1.00;94.20;;;;;;4944927;28;20032;-88
2022/01/07 02:20:25;;;;;;;38.50;12.90;;;1.10;94.20;;;;;;4953662;28;20090;-88
2022/01/07 02:22:51;;;;;;;34.78;13.38;;;1.10;94.20;;;;;;4956651;28;20134;-88
2022/01/07 02:25:16;;;;;;;39.28;12.98;;;1.10;93.90;;;;;;4950394;29;20539;-89
2022/01/07 02:27:44;;;;;;;33.60;12.50;;;1.10;93.70;;;;;;4935474;28;20800;-88
2022/01/07 02:30:13;;;;;;;34.03;12.60;;;1.20;93.20;;;;;;4951781;28;20058;-88
2022/01/07 02:32:38;;;;;;;20.55;10.10;;;1.10;93.40;;;;;;4945429;28;20475;-88
2022/01/07 02:35:05;;;;;;;21.23;9.93;;;1.20;93.40;;;;;;4951351;28;20114;-88
2022/01/07 02:37:31;;;;;;;24.92;11.30;;;1.20;93.20;;;;;;4953615;28;20035;-89
2022/01/07 02:39:59;;;;;;;24.88;10.32;;;1.20;93.00;;;;;;4942191;28;20051;-88
2022/01/07 02:42:27;;;;;;;28.67;9.95;;;1.30;92.80;;;;;;4955184;28;20309;-89
2022/01/07 02:44:52;;;;;;;24.55;11.35;;;1.30;92.80;;;;;;4951409;28;20559;-88
2022/01/07 02:47:19;;;;;;;23.80;10.02;;;1.20;92.80;;;;;;4952487;28;20605;-89
2022/01/07 02:49:45;;;;;;;27.00;10.32;;;1.30;92.60;;;;;;4968185;28;20020;-88
2022/01/07 02:52:10;;;;;;;18.92;9.48;;;1.20;92.70;;;;;;4953213;29;20079;-89
2022/01/07 02:54:36;;;;;;;24.10;9.73;;;1.20;92.80;;;;;;4951716;29;20039;-88
2022/01/07 02:57:01;;;;;;;23.17;9.00;;;1.20;92.80;;;;;;4950045;29;20078;-89
2022/01/07 02:59:27;;;;;;;24.40;9.70;;;1.20;92.70;;;;;;4952017;29;20043;-88
2022/01/07 03:01:55;;;;;;;27.98;9.23;;;1.20;92.60;;;;;;4953489;28;20467;-89
2022/01/07 03:04:33;;;;;;;;;;;;;;;;;;;;;
2022/01/07 03:07:19;;;;;;;26.15;9.40;;;1.20;92.50;;;;;;4946786;28;20023;-88
2022/01/07 03:09:55;;;;;;;22.60;8.27;;;1.20;92.40;;;;;;4936561;29;20027;-88
2022/01/07 03:12:20;;;;;;;16.17;7.75;;;1.20;92.30;;;;;;4946982;28;20514;-88
2022/01/07 03:15:13;;;;;;;19.17;7.63;;;1.30;92.00;;;;;;4953251;29;20027;-88
2022/01/07 03:17:49;;;;;;;23.17;8.68;;;1.20;92.00;;;;;;4943260;29;20118;-89
2022/01/07 03:20:22;;;;;;;20.48;8.25;;;1.20;92.10;;;;;;4943143;29;20035;-89
2022/01/07 03:22:49;;;;;;;15.63;7.32;;;1.30;92.00;;;;;;4949406;28;20045;-88
2022/01/07 03:25:18;;;;;;;22.75;7.45;;;1.30;91.90;;;;;;4955746;28;20126;-89
2022/01/07 03:27:43;;;;;;;22.13;7.60;;;1.30;91.50;;;;;;4953491;29;20439;-88
2022/01/07 03:30:11;;;;;;;15.82;7.32;;;1.30;91.30;;;;;;4945630;29;20023;-89
2022/01/07 03:32:38;;;;;;;21.27;7.35;;;1.30;91.60;;;;;;4950360;29;20052;-88
2022/01/07 03:35:05;;;;;;;20.88;8.55;;;1.30;91.50;;;;;;4942813;29;20495;-89
2022/01/07 03:37:33;;;;;;;19.67;6.90;;;1.30;91.50;;;;;;4964038;28;20031;-89
2022/01/07 03:39:59;;;;;;;17.27;7.35;;;1.30;91.20;;;;;;4950815;29;20054;-88
2022/01/07 03:42:24;;;;;;;14.18;5.38;;;1.40;91.10;;;;;;4952390;28;20479;-88
2022/01/07 03:44:50;;;;;;;18.00;6.65;;;1.40;91.10;;;;;;4940371;28;20145;-88
2022/01/07 03:47:17;;;;;;;17.58;6.53;;;1.40;90.80;;;;;;4945167;29;20095;-89
2022/01/07 03:49:43;;;;;;;17.98;5.85;;;1.40;91.00;;;;;;4948872;29;20518;-89
2022/01/07 03:52:08;;;;;;;17.25;6.40;;;1.40;90.80;;;;;;4952251;29;20058;-88
2022/01/07 03:54:34;;;;;;;18.33;6.95;;;1.40;91.10;;;;;;4949521;28;20073;-88
2022/01/07 03:57:02;;;;;;;20.33;5.85;;;1.40;91.10;;;;;;4941972;28;20067;-89
2022/01/07 03:59:40;;;;;;;;;;;;;;;;;;;;;
2022/01/07 04:02:11;;;;;;;16.92;5.78;;;1.40;90.80;;;;;;4951897;29;20034;-88
2022/01/07 04:04:36;;;;;;;16.65;5.35;;;1.50;90.40;;;;;;4950553;28;20086;-89
2022/01/07 04:07:04;;;;;;;13.07;4.88;;;1.50;90.10;;;;;;4948319;28;20035;-88
2022/01/07 04:09:30;;;;;;;15.32;6.35;;;1.50;90.40;;;;;;4956411;28;20024;-88
2022/01/07 04:11:58;;;;;;;14.05;6.05;;;1.50;90.20;;;;;;4937415;29;20028;-89
2022/01/07 04:14:26;;;;;;;13.70;4.72;;;1.50;90.60;;;;;;4937970;28;20040;-89
2022/01/07 04:17:01;;;;;;;18.77;6.38;;;1.50;91.10;;;;;;4942855;29;20114;-89
2022/01/07 04:19:27;;;;;;;19.50;6.13;;;1.40;91.60;;;;;;4943098;28;20039;-88
2022/01/07 04:21:55;;;;;;;15.38;6.25;;;1.30;92.30;;;;;;4944757;28;20487;-88
2022/01/07 04:24:20;;;;;;;11.63;6.18;;;1.20;92.80;;;;;;4943038;29;20055;-88
2022/01/07 04:26:46;;;;;;;14.98;5.90;;;1.10;93.40;;;;;;4952256;29;20082;-88
2022/01/07 04:29:12;;;;;;;16.70;7.22;;;1.10;93.80;;;;;;4948961;29;20840;-88
2022/01/07 04:31:37;;;;;;;11.27;6.18;;;1.00;94.10;;;;;;4939898;29;20118;-88
2022/01/07 04:34:03;;;;;;;19.95;6.53;;;1.00;94.50;;;;;;4947807;29;20507;-88
2022/01/07 04:36:37;;;;;;;16.45;6.80;;;0.90;94.70;;;;;;4937770;28;20110;-88
2022/01/07 04:39:07;;;;;;;18.58;7.20;;;0.90;94.80;;;;;;4956394;28;20042;-88
2022/01/07 04:41:32;;;;;;;17.10;6.93;;;0.80;95.10;;;;;;4950335;29;20058;-88
2022/01/07 04:44:00;;;;;;;23.55;7.40;;;0.80;95.20;;;;;;4944133;28;20480;-88
2022/01/07 04:46:28;;;;;;;22.77;7.30;;;0.80;95.50;;;;;;4948037;29;20039;-88
2022/01/07 04:49:11;;;;;;;15.85;6.57;;;0.80;95.60;;;;;;4954446;28;20016;-88
2022/01/07 04:51:45;;;;;;;21.05;7.15;;;0.70;95.70;;;;;;4953945;28;20091;-88
2022/01/07 04:54:16;;;;;;;21.15;7.72;;;0.80;95.80;;;;;;4945577;29;20211;-88
2022/01/07 04:56:51;;;;;;;17.98;8.13;;;0.80;95.90;;;;;;4943470;28;20047;-88
2022/01/07 04:59:19;;;;;;;16.65;7.97;;;0.80;96.10;;;;;;4952503;28;20050;-88
2022/01/07 05:01:50;;;;;;;24.38;7.20;;;0.80;96.10;;;;;;4948756;28;20028;-88
2022/01/07 05:04:15;;;;;;;;;;;0.80;96.20;;;;;;4951764;28;20028;-88
2022/01/07 05:06:44;;;;;;;23.42;7.82;;;0.70;96.20;;;;;;4955779;28;20374;-88
2022/01/07 05:09:19;;;;;;;21.48;8.23;;;0.80;96.30;;;;;;4943992;29;20030;-88
2022/01/07 05:11:56;;;;;;;21.70;7.72;;;0.80;96.30;;;;;;4940633;29;20034;-88
2022/01/07 05:14:24;;;;;;;20.75;8.57;;;0.80;96.40;;;;;;4951193;28;20042;-88
2022/01/07 05:16:52;;;;;;;20.13;7.70;;;0.80;96.40;;;;;;4950890;29;20030;-88
2022/01/07 05:19:17;;;;;;;22.33;7.32;;;0.70;96.40;;;;;;4940357;29;20035;-89
2022/01/07 05:21:46;;;;;;;22.95;8.73;;;0.70;96.50;;;;;;4949320;28;20475;-89
2022/01/07 05:24:34;;;;;;;25.17;7.50;;;0.70;96.50;;;;;;4950799;29;20031;-89
2022/01/07 05:27:23;;;;;;;16.00;7.80;;;0.70;96.60;;;;;;4936098;29;20031;-89
2022/01/07 05:29:55;;;;;;;15.02;7.63;;;0.70;96.60;;;;;;4950817;28;20030;-89
2022/01/07 05:32:21;;;;;;;26.58;9.38;;;0.70;96.60;;;;;;4951501;28;20074;-89
2022/01/07 05:35:04;;;;;;;;;;;;;;;;;;;;;
2022/01/07 05:37:29;;;;;;;18.65;8.32;;;0.70;96.70;;;;;;4947096;28;20028;-89
2022/01/07 05:39:57;;;;;;;24.45;8.35;;;0.60;96.80;;;;;;4950605;29;20122;-89
2022/01/07 05:42:25;;;;;;;24.85;8.20;;;0.70;96.80;;;;;;4937391;29;20086;-89
2022/01/07 05:44:58;;;;;;;26.02;8.88;;;0.70;96.90;;;;;;4942728;28;20522;-89
2022/01/07 05:47:32;;;;;;;28.52;9.32;;;0.60;96.90;;;;;;4946953;29;20054;-89
2022/01/07 05:50:23;;;;;;;21.02;8.60;;;0.60;96.90;;;;;;4942457;28;20392;-89
2022/01/07 05:52:52;;;;;;;24.40;8.25;;;0.60;97.00;;;;;;4939333;28;20445;-88
2022/01/07 05:55:25;;;;;;;15.65;8.07;;;0.60;97.00;;;;;;4954761;28;20035;-89
2022/01/07 05:57:53;;;;;;;18.52;7.97;;;0.60;97.00;;;;;;4946138;28;20502;-89
2022/01/07 06:00:28;;;;;;;20.38;8.00;;;0.60;97.10;;;;;;4947676;28;20066;-89
2022/01/07 06:03:01;;;;;;;22.58;9.73;;;0.60;97.10;;;;;;4949838;28;20038;-89
2022/01/07 06:05:27;;;;;;;26.40;9.07;;;0.60;97.10;;;;;;4950113;29;20118;-89
2022/01/07 06:07:55;;;;;;;20.98;10.00;;;0.60;97.10;;;;;;4949188;29;20126;-88
2022/01/07 06:10:21;;;;;;;23.10;9.38;;;0.60;97.20;;;;;;4954724;28;20257;-88
2022/01/07 06:12:53;;;;;;;25.38;8.60;;;0.60;97.20;;;;;;4946257;28;20032;-88
2022/01/07 06:15:24;;;;;;;19.10;9.02;;;0.70;97.30;;;;;;4922930;28;20043;-88
2022/01/07 06:17:52;;;;;;;;;;;0.70;97.20;;;;;;4894555;29;20063;-89
2022/01/07 06:20:19;;;;;;;24.58;10.07;;;0.60;97.20;;;;;;4962632;28;20299;-88
2022/01/07 06:22:45;;;;;;;20.23;8.27;;;0.70;97.30;;;;;;4956795;28;20410;-88
2022/01/07 06:25:20;;;;;;;19.80;9.05;;;0.60;97.20;;;;;;4949960;29;20169;-88
2022/01/07 06:27:46;;;;;;;31.80;9.73;;;0.60;97.30;;;;;;4949365;28;20031;-88
2022/01/07 06:30:11;;;;;;;18.75;8.88;;;0.60;97.30;;;;;;4942815;28;20071;-88
2022/01/07 06:32:39;;;;;;;17.85;9.98;;;0.60;97.30;;;;;;4946518;28;20031;-88
2022/01/07 06:35:11;;;;;;;18.35;9.00;;;0.60;97.40;;;;;;4943243;29;20119;-87
2022/01/07 06:37:38;;;;;;;18.35;8.98;;;0.60;97.40;;;;;;4943631;28;20031;-87
2022/01/07 06:40:04;;;;;;;18.25;9.30;;;0.60;97.40;;;;;;4952153;29;20031;-88
2022/01/07 06:42:31;;;;;;;18.30;8.88;;;0.60;97.40;;;;;;4948872;29;20032;-88
2022/01/07 06:44:56;;;;;;;21.52;9.55;;;0.70;97.40;;;;;;4963690;28;20118;-88
2022/01/07 06:47:22;;;;;;;16.63;9.00;;;0.60;97.40;;;;;;4949402;29;20118;-88
2022/01/07 06:49:56;;;;;;;20.63;8.90;;;0.60;97.40;;;;;;4952473;28;20155;-88
2022/01/07 06:52:21;;;;;;;24.27;8.32;;;0.60;97.40;;;;;;4944787;28;20063;-88
2022/01/07 06:54:47;;;;;;;24.05;9.80;;;0.60;97.50;;;;;;4949253;28;20506;-88
2022/01/07 06:57:12;;;;;;;18.05;9.10;;;0.60;97.50;;;;;;4949882;28;20467;-88
2022/01/07 06:59:40;;;;;;;23.00;9.35;;;0.70;97.50;;;;;;4952352;29;20078;-88
2022/01/07 07:02:06;;;;;;;28.27;9.73;;;0.60;97.50;;;;;;4953523;28;20035;-88
2022/01/07 07:04:34;;;;;;;23.42;10.25;;;0.60;97.50;;;;;;4964567;28;20613;-88
2022/01/07 07:07:00;;;;;;;25.40;9.00;;;0.60;97.50;;;;;;4953947;29;20030;-88
2022/01/07 07:09:28;;;;;;;22.70;9.02;;;0.60;97.50;;;;;;4951971;28;20691;-88
2022/01/07 07:11:53;;;;;;;29.08;10.05;;;0.60;97.60;;;;;;4950121;29;20027;-88
2022/01/07 07:14:19;;;;;;;26.05;10.10;;;0.60;97.50;;;;;;4960869;28;20037;-88
2022/01/07 07:16:44;;;;;;;19.95;10.25;;;0.70;97.60;;;;;;4966956;28;20085;-88
2022/01/07 07:19:10;;;;;;;23.00;10.68;;;0.70;97.60;;;;;;4953936;28;20385;-88
2022/01/07 07:21:36;;;;;;;23.67;10.60;;;0.70;97.60;;;;;;4952935;28;20135;-88
2022/01/07 07:24:05;;;;;;;25.60;10.35;;;0.70;97.60;;;;;;4952785;29;20035;-88
2022/01/07 07:26:32;;;;;;;24.83;10.23;;;0.70;97.60;;;;;;4952440;28;20031;-88
2022/01/07 07:28:58;;;;;;;25.40;9.98;;;0.80;97.60;;;;;;4967373;28;20038;-88
2022/01/07 07:31:23;;;;;;;17.90;9.57;;;0.80;97.60;;;;;;4953526;28;20020;-88
2022/01/07 07:36:27;;;;;;;20.23;8.13;;;0.80;97.60;;;;;;4951236;28;20432;-88
2022/01/07 07:38:53;;;;;;;18.02;10.68;;;0.80;97.60;;;;;;4951999;28;20034;-89
2022/01/07 07:41:21;;;;;;;20.98;10.23;;;0.80;97.60;;;;;;4952648;28;20027;-89
2022/01/07 07:43:49;;;;;;;25.27;10.95;;;0.90;97.60;;;;;;4951809;28;20027;-89
2022/01/07 07:46:18;;;;;;;27.33;10.63;;;0.90;97.60;;;;;;4950310;29;20174;-89
2022/01/07 07:48:47;;;;;;;18.90;10.70;;;0.80;97.60;;;;;;4953351;28;20035;-89
2022/01/07 07:51:16;;;;;;;24.38;11.35;;;0.80;97.60;;;;;;4946136;29;20391;-89
2022/01/07 07:53:42;;;;;;;21.08;9.60;;;0.90;97.60;;;;;;4951594;29;20102;-89
2022/01/07 07:56:13;;;;;;;22.90;10.82;;;0.90;97.60;;;;;;4948376;29;20607;-89
2022/01/07 07:58:39;;;;;;;20.30;10.48;;;0.90;97.60;;;;;;4950149;28;20106;-89
2022/01/07 08:01:05;;;;;;;19.95;10.30;;;0.90;97.60;;;;;;4946716;28;20477;-89
2022/01/07 08:03:30;;;;;;;24.65;10.98;;;0.90;97.60;;;;;;4964625;28;20035;-89
2022/01/07 08:05:56;;;;;;;20.58;11.40;;;1.00;97.60;;;;;;4947200;29;20027;-89
2022/01/07 08:08:21;;;;;;;19.75;10.45;;;1.00;97.60;;;;;;4948428;29;20023;-89
2022/01/07 08:10:50;;;;;;;22.02;10.90;;;1.00;97.60;;;;;;4946086;29;20039;-89
2022/01/07 08:13:29;;;;;;;19.73;10.10;;;0.90;97.60;;;;;;4960193;28;20110;-89
2022/01/07 08:15:58;;;;;;;13.40;7.20;;;0.90;97.50;;;;;;4951052;29;20024;-89
2022/01/07 08:18:32;;;;;;;18.17;10.45;;;0.90;97.50;;;;;;4951762;28;20026;-89
2022/01/07 08:21:12;;;;;;;22.05;11.75;;;0.90;97.50;;;;;;4951450;28;20028;-89
2022/01/07 08:23:42;;;;;;;21.05;11.45;;;0.90;97.50;;;;;;4944421;28;20038;-87
2022/01/07 08:26:13;;;;;;;18.58;10.10;;;0.90;97.50;;;;;;4949994;29;20035;-89
2022/01/07 08:28:44;;;;;;;21.50;11.30;;;0.80;97.50;;;;;;4950896;29;20117;-86
2022/01/07 08:36:24;;;;;;;21.88;11.25;;;0.80;97.50;;;;;;4946277;29;20042;-86
2022/01/07 08:38:50;;;;;;;21.23;11.43;;;0.80;97.60;;;;;;4943577;29;20395;-86
2022/01/07 08:41:16;;;;;;;26.10;12.85;;;0.90;97.60;;;;;;4947277;28;20027;-86
2022/01/07 08:43:42;;;;;;;22.73;11.45;;;0.90;97.60;;;;;;4951210;28;20395;-86
2022/01/07 08:46:10;;;;;;;23.40;12.27;;;0.90;97.60;;;;;;4961423;28;20027;-88
2022/01/07 08:48:37;;;;;;;23.85;11.98;;;0.90;97.60;;;;;;4956186;28;20023;-86
2022/01/07 08:51:04;;;;;;;21.00;12.27;;;0.90;97.50;;;;;;4950237;28;20020;-86
2022/01/07 08:53:30;;;;;;;23.95;11.60;;;0.80;97.60;;;;;;4945996;28;20035;-86
2022/01/07 08:55:55;;;;;;;20.45;11.80;;;0.80;97.60;;;;;;4948704;28;20023;-86
2022/01/07 08:58:21;;;;;;;21.30;12.50;;;0.80;97.60;;;;;;4945897;29;20036;-86
2022/01/07 09:00:47;;;;;;;24.02;12.13;;;0.80;97.60;;;;;;4964085;28;20085;-86
2022/01/07 09:03:13;;;;;;;22.35;12.02;;;0.80;97.60;;;;;;4949746;29;20449;-87
2022/01/07 09:05:38;;;;;;;23.85;13.38;;;0.80;97.60;;;;;;4947126;28;20054;-86
2022/01/07 09:08:07;;;;;;;19.20;11.13;;;0.80;97.60;;;;;;4959007;28;20027;-86
2022/01/07 09:10:33;;;;;;;21.38;12.20;;;0.80;97.60;;;;;;4941833;29;20035;-87
2022/01/07 09:12:58;;;;;;;25.35;12.65;;;0.70;97.60;;;;;;4945555;28;20036;-86
2022/01/07 09:15:24;;;;;;;24.15;13.25;;;0.70;97.60;;;;;;4944344;28;20086;-86
2022/01/07 09:17:50;;;;;;;19.95;11.15;;;0.70;97.70;;;;;;4940815;28;20035;-86
2022/01/07 09:20:17;;;;;;;22.48;13.93;;;0.80;97.70;;;;;;4946691;28;20059;-87
2022/01/07 09:22:43;;;;;;;25.55;13.15;;;0.80;97.70;;;;;;4964488;28;20042;-86
2022/01/07 09:25:09;;;;;;;28.17;14.20;;;0.80;97.70;;;;;;4941717;29;20063;-87
2022/01/07 09:27:36;;;;;;;24.45;12.57;;;0.80;97.70;;;;;;4952625;28;20476;-86
2022/01/07 09:30:02;;;;;;;26.27;14.05;;;0.90;97.80;;;;;;4961968;28;20127;-86
2022/01/07 09:32:28;;;;;;;29.17;13.35;;;0.90;97.80;;;;;;4946118;28;20480;-86
2022/01/07 09:34:53;;;;;;;21.65;13.68;;;1.00;97.80;;;;;;4950050;29;20031;-86
2022/01/07 09:37:19;;;;;;;28.13;13.63;;;1.00;97.80;;;;;;4948360;28;20094;-86
2022/01/07 09:39:44;;;;;;;25.35;14.23;;;1.00;97.80;;;;;;4948090;28;20035;-86
2022/01/07 09:42:10;;;;;;;31.60;14.48;;;1.10;97.80;;;;;;4944556;28;20042;-86
2022/01/07 09:44:37;;;;;;;29.88;14.85;;;1.10;97.80;;;;;;4966236;28;20019;-86
2022/01/07 09:47:03;;;;;;;27.67;15.13;;;1.10;97.80;;;;;;4943836;28;20062;-86
2022/01/07 09:49:33;;;;;;;23.15;14.20;;;1.10;97.80;;;;;;4959860;28;20019;-86
2022/01/07 09:51:59;;;;;;;21.88;14.38;;;1.10;97.80;;;;;;4959276;28;20035;-86
2022/01/07 09:54:25;;;;;;;27.73;15.50;;;1.10;97.80;;;;;;4945031;29;20074;-88
2022/01/07 09:56:51;;;;;;;23.08;14.07;;;1.10;97.80;;;;;;4943509;28;20515;-86
2022/01/07 09:59:18;;;;;;;27.60;15.05;;;1.10;97.80;;;;;;4939908;28;20460;-86
2022/01/07 10:01:57;;;;;;;24.77;14.13;;;1.20;97.80;;;;;;4950704;29;20399;-86
2022/01/07 10:04:37;;;;;;;23.77;14.82;;;1.20;97.80;;;;;;4949771;28;20114;-86
2022/01/07 10:07:21;;;;;;;26.38;15.13;;;1.20;97.80;;;;;;4943688;29;20050;-86
2022/01/07 10:10:06;;;;;;;23.88;14.55;;;1.30;97.80;;;;;;4947882;28;20046;-86
2022/01/07 10:12:48;;;;;;;27.40;15.65;;;1.40;97.90;;;;;;4947502;28;20023;-87
2022/01/07 10:15:22;;;;;;;24.67;14.55;;;1.40;97.80;;;;;;4949417;29;20484;-86
2022/01/07 10:17:56;;;;;;;27.20;15.35;;;1.40;97.80;;;;;;4948176;29;20507;-86
2022/01/07 10:20:24;;;;;;;23.83;14.50;;;1.50;97.80;;;;;;4968836;28;20030;-86
2022/01/07 10:22:54;;;;;;;24.83;13.98;;;1.50;97.80;;;;;;4953824;28;20038;-87
2022/01/07 10:25:41;;;;;;;22.25;14.45;;;1.50;97.80;;;;;;4952893;28;20230;-87
2022/01/07 10:28:12;;;;;;;23.83;15.10;;;1.50;97.80;;;;;;4946963;28;20023;-86
2022/01/07 10:30:41;;;;;;;20.63;12.63;;;1.60;97.80;;;;;;4946803;28;20031;-86
2022/01/07 10:33:25;;;;;;;21.23;13.70;;;1.60;97.70;;;;;;4951617;28;20082;-86
2022/01/07 10:35:53;;;;;;;14.68;9.70;;;1.60;97.70;;;;;;4950629;29;20447;-86
2022/01/07 10:38:22;;;;;;;20.45;13.20;;;1.50;97.60;;;;;;4963512;28;20036;-86
2022/01/07 10:40:49;;;;;;;19.65;13.75;;;1.60;97.60;;;;;;4957317;28;20074;-87
2022/01/07 10:43:32;;;;;;;22.27;14.48;;;1.60;97.60;;;;;;4954434;28;20039;-87
2022/01/07 10:46:00;;;;;;;26.33;14.07;;;1.60;97.60;;;;;;4939246;29;20054;-86
2022/01/07 10:48:42;;;;;;;24.98;15.20;;;1.60;97.60;;;;;;4955138;28;20074;-86
2022/01/07 10:51:11;;;;;;;24.40;15.55;;;1.60;97.60;;;;;;4958502;28;20484;-86
2022/01/07 10:53:38;;;;;;;21.98;14.75;;;1.60;97.50;;;;;;4949745;29;20032;-87
2022/01/07 10:56:10;;;;;;;22.48;15.82;;;1.60;97.50;;;;;;4966077;28;20030;-87
2022/01/07 10:58:52;;;;;;;26.15;15.20;;;1.70;97.60;;;;;;4953531;29;20732;-87
2022/01/07 11:01:20;;;;;;;24.60;16.77;;;1.70;97.50;;;;;;4945576;29;20020;-87
2022/01/07 11:03:47;;;;;;;26.40;16.15;;;1.70;97.60;;;;;;4951908;28;20031;-87
2022/01/07 11:06:13;;;;;;;29.23;17.00;;;1.70;97.60;;;;;;4947959;28;20508;-86
2022/01/07 11:08:40;;;;;;;30.63;17.55;;;1.80;97.60;;;;;;4943485;28;20377;-87
2022/01/07 11:11:08;;;;;;;31.20;16.33;;;1.80;97.50;;;;;;4937084;29;20443;-87
2022/01/07 11:13:35;;;;;;;23.58;15.93;;;1.80;97.60;;;;;;4941835;29;20547;-86
2022/01/07 11:16:02;;;;;;;27.20;18.30;;;1.80;97.50;;;;;;4954211;28;20816;-87
2022/01/07 11:18:27;;;;;;;26.58;18.15;;;1.80;97.50;;;;;;4940369;29;20031;-88
2022/01/07 11:20:57;;;;;;;26.38;16.50;;;1.90;97.60;;;;;;4950458;28;20098;-87
2022/01/07 11:23:25;;;;;;;31.40;18.08;;;1.90;97.60;;;;;;4953346;28;20051;-87
2022/01/07 11:26:05;;;;;;;30.40;18.15;;;1.90;97.60;;;;;;4941317;28;20067;-87
2022/01/07 11:28:31;;;;;;;29.23;17.50;;;2.00;97.60;;;;;;4952832;29;20130;-87
2022/01/07 11:31:12;;;;;;;32.67;17.38;;;2.10;97.50;;;;;;4959988;28;20027;-87
2022/01/07 11:33:38;;;;;;;33.58;21.23;;;2.10;97.50;;;;;;4958501;28;20521;-87
2022/01/07 11:36:04;;;;;;;31.10;19.38;;;2.10;97.50;;;;;;4951051;29;20039;-87
2022/01/07 11:38:44;;;;;;;31.00;19.52;;;2.10;97.50;;;;;;4948307;28;20055;-87
2022/01/07 11:41:44;;;;;;;27.75;18.85;;;2.20;97.50;;;;;;4949356;29;20529;-87
2022/01/07 11:44:30;;;;;;;32.15;19.50;;;2.30;97.50;;;;;;4942212;28;20035;-87
2022/01/07 11:47:19;;;;;;;32.40;18.83;;;2.30;97.40;;;;;;4947809;29;20039;-87
2022/01/07 11:49:45;;;;;;;34.20;20.77;;;2.30;97.40;;;;;;4950758;29;20113;-87
2022/01/07 11:52:37;;;;;;;35.95;20.67;;;2.40;97.40;;;;;;4948051;29;20114;-87
2022/01/07 11:55:32;;;;;;;30.75;20.33;;;2.50;97.40;;;;;;4962885;28;20118;-87
2022/01/07 11:58:06;;;;;;;32.05;19.30;;;2.60;97.30;;;;;;4953513;28;20449;-87
2022/01/07 12:01:01;;;;;;;33.72;20.90;;;2.60;97.20;;;;;;4963568;28;20031;-87
2022/01/07 12:03:48;;;;;;;34.47;21.33;;;2.60;97.20;;;;;;4959949;28;20027;-87
2022/01/07 12:06:23;;;;;;;30.85;18.95;;;2.70;97.20;;;;;;4946369;28;20035;-87
2022/01/07 12:09:11;;;;;;;31.02;18.98;;;2.70;97.10;;;;;;4946048;29;20059;-87
2022/01/07 12:11:42;;;;;;;33.30;20.05;;;2.70;97.00;;;;;;4951603;28;20555;-87
2022/01/07 12:14:19;;;;;;;30.27;18.77;;;2.70;97.10;;;;;;4952847;28;20085;-87
2022/01/07 12:16:49;;;;;;;32.83;20.17;;;2.80;97.00;;;;;;4947116;28;20479;-87
2022/01/07 12:19:18;;;;;;;26.13;19.00;;;2.80;97.00;;;;;;4943429;29;20035;-87
2022/01/07 12:21:54;;;;;;;27.27;14.88;;;2.90;96.90;;;;;;4944088;28;20031;-87
2022/01/07 12:24:25;;;;;;;30.10;19.58;;;2.90;96.90;;;;;;4937010;29;20683;-87
2022/01/07 12:27:05;;;;;;;29.75;18.48;;;3.00;96.80;;;;;;4940478;28;20051;-87
2022/01/07 12:29:36;;;;;;;29.65;18.33;;;3.00;96.80;;;;;;4956796;28;20163;-87
2022/01/07 12:32:04;;;;;;;28.10;19.60;;;3.00;96.80;;;;;;4946234;29;20082;-87
2022/01/07 12:34:56;;;;;;;28.63;17.95;;;3.00;96.80;;;;;;4946777;28;20649;-87
2022/01/07 12:37:25;;;;;;;31.88;18.55;;;3.00;96.80;;;;;;4941901;29;20745;-88
2022/01/07 12:39:56;;;;;;;27.95;17.85;;;3.10;96.60;;;;;;4942369;28;20027;-87
2022/01/07 12:42:23;;;;;;;31.25;18.83;;;3.10;96.60;;;;;;4942466;29;20127;-87
2022/01/07 12:44:54;;;;;;;27.88;18.23;;;3.10;96.60;;;;;;4955620;28;20031;-87
2022/01/07 12:47:23;;;;;;;29.10;18.30;;;3.10;96.50;;;;;;4944893;29;20024;-87
2022/01/07 12:49:59;;;;;;;29.77;18.13;;;3.10;96.60;;;;;;4967275;28;20085;-87
2022/01/07 12:52:37;;;;;;;28.15;18.40;;;3.10;96.60;;;;;;4950789;28;20659;-86
2022/01/07 12:55:18;;;;;;;27.30;17.25;;;3.10;96.50;;;;;;4946450;28;20039;-87
2022/01/07 12:57:49;;;;;;;26.42;17.00;;;3.10;96.50;;;;;;4945678;28;20059;-87
2022/01/07 13:00:23;;;;;;;33.88;18.08;;;3.20;96.60;;;;;;4965581;28;20590;-86
2022/01/07 13:02:53;;;;;;;29.42;17.88;;;3.10;96.40;;;;;;4946442;29;20031;-87